createdAt,value
2022-09-11T00:00:00.097Z,73.80
2022-09-11T00:02:36.512Z,73.95
2022-09-11T00:05:10.685Z,73.99
2022-09-11T00:07:47.478Z,74.05
2022-09-11T00:10:21.121Z,74.12
2022-09-11T00:12:54.275Z,73.57
2022-09-11T00:15:38.271Z,73.79
2022-09-11T00:18:18.647Z,74.13
2022-09-11T00:20:57.703Z,74.13
2022-09-11T00:23:31.992Z,74.35
2022-09-11T00:26:10.806Z,74.38
2022-09-11T00:28:45.420Z,74.13
2022-09-11T00:31:21.135Z,74.06
2022-09-11T00:33:57.124Z,74.31
2022-09-11T00:36:36.528Z,74.25
2022-09-11T00:39:19.410Z,74.44
2022-09-11T00:41:56.921Z,74.50
2022-09-11T00:45:02.258Z,74.46
2022-09-11T00:47:39.092Z,74.60
2022-09-11T00:50:20.139Z,74.85
2022-09-11T00:53:03.231Z,74.86
2022-09-11T00:58:45.990Z,74.72
2022-09-11T01:01:24.332Z,74.84
2022-09-11T01:04:02.185Z,75.14
2022-09-11T01:06:37.241Z,75.12
2022-09-11T01:09:12.903Z,75.23
2022-09-11T01:11:56.758Z,75.38
2022-09-11T01:14:43.179Z,75.25
2022-09-11T01:17:23.046Z,74.62
2022-09-11T01:20:26.646Z,74.85
2022-09-11T01:23:37.509Z,74.77
2022-09-11T01:26:38.080Z,75.02
2022-09-11T01:29:22.627Z,75.08
2022-09-11T01:32:07.509Z,75.18
2022-09-11T01:34:50.337Z,75.27
2022-09-11T01:37:57.632Z,75.09
2022-09-11T01:40:43.384Z,75.15
2022-09-11T01:43:23.162Z,75.45
2022-09-11T01:46:06.092Z,75.42
2022-09-11T01:48:56.686Z,75.29
2022-09-11T01:51:39.370Z,75.56
2022-09-11T01:54:22.540Z,75.27
2022-09-11T01:57:02.464Z,75.18
2022-09-11T01:59:41.231Z,75.27
2022-09-11T02:02:24.097Z,75.24
2022-09-11T02:05:04.119Z,75.39
2022-09-11T02:07:47.308Z,75.38
2022-09-11T02:10:30.294Z,75.41
2022-09-11T02:13:15.435Z,75.32
2022-09-11T02:15:53.852Z,75.34
2022-09-11T02:18:43.052Z,75.23
2022-09-11T02:21:17.486Z,75.35
2022-09-11T02:23:50.976Z,75.35
2022-09-11T02:26:32.795Z,75.25
2022-09-11T02:29:12.574Z,75.26
2022-09-11T02:31:50.349Z,75.33
2022-09-11T02:34:35.480Z,75.24
2022-09-11T02:37:20.362Z,75.20
2022-09-11T02:40:32.681Z,75.12
2022-09-11T02:43:34.659Z,75.10
2022-09-11T02:46:30.214Z,75.09
2022-09-11T02:49:10.771Z,75.10
2022-09-11T02:51:59.496Z,75.13
2022-09-11T02:54:43.307Z,75.16
2022-09-11T02:57:26.761Z,75.07
2022-09-11T03:00:07.123Z,75.05
2022-09-11T03:02:53.758Z,75.03
2022-09-11T03:05:29.870Z,75.11
2022-09-11T03:08:09.743Z,74.97
2022-09-11T03:10:45.817Z,75.07
2022-09-11T03:13:19.506Z,75.15
2022-09-11T03:15:58.011Z,74.74
2022-09-11T03:18:35.412Z,74.80
2022-09-11T03:21:11.521Z,75.03
2022-09-11T03:23:48.449Z,75.36
2022-09-11T03:26:23.762Z,75.23
2022-09-11T03:28:59.357Z,75.34
2022-09-11T03:31:36.243Z,75.28
2022-09-11T03:34:14.008Z,75.29
2022-09-11T03:36:48.171Z,75.17
2022-09-11T03:39:26.202Z,75.15
2022-09-11T03:42:03.259Z,75.28
2022-09-11T03:44:37.042Z,75.23
2022-09-11T03:47:15.478Z,75.43
2022-09-11T03:49:52.053Z,75.33
2022-09-11T03:52:31.488Z,75.26
2022-09-11T03:55:11.006Z,75.28
2022-09-11T03:57:46.861Z,75.23
2022-09-11T04:00:20.940Z,75.05
2022-09-11T04:02:58.792Z,74.55
2022-09-11T04:05:40.718Z,74.87
2022-09-11T04:08:15.550Z,75.00
2022-09-11T04:11:00.575Z,75.16
2022-09-11T04:13:37.959Z,75.12
2022-09-11T04:16:17.032Z,75.10
2022-09-11T04:18:54.497Z,75.21
2022-09-11T04:21:35.233Z,75.32
2022-09-11T04:24:13.864Z,75.30
2022-09-11T04:26:56.229Z,75.28
2022-09-11T04:29:38.409Z,75.26
2022-09-11T04:32:19.531Z,75.37
2022-09-11T04:34:56.582Z,75.23
2022-09-11T04:37:30.232Z,75.36
2022-09-11T04:40:07.336Z,75.31
2022-09-11T04:42:45.230Z,75.33
2022-09-11T04:45:20.200Z,75.26
2022-09-11T04:47:54.112Z,75.37
2022-09-11T04:50:31.238Z,75.23
2022-09-11T04:53:28.962Z,75.27
2022-09-11T04:56:07.067Z,75.19
2022-09-11T04:58:53.575Z,75.27
2022-09-11T05:01:35.337Z,75.25
2022-09-11T05:04:15.078Z,75.28
2022-09-11T05:06:48.796Z,75.18
2022-09-11T05:09:27.420Z,75.13
2022-09-11T05:12:06.473Z,75.27
2022-09-11T05:14:48.445Z,75.05
2022-09-11T05:17:23.656Z,75.15
2022-09-11T05:19:57.112Z,75.23
2022-09-11T05:22:30.759Z,75.09
2022-09-11T05:25:09.128Z,75.14
2022-09-11T05:27:42.583Z,75.11
2022-09-11T05:30:17.823Z,75.06
2022-09-11T05:32:56.343Z,75.13
2022-09-11T05:35:32.549Z,75.08
2022-09-11T05:38:11.021Z,75.04
2022-09-11T05:40:49.474Z,74.84
2022-09-11T05:43:26.749Z,75.01
2022-09-11T05:46:05.527Z,74.96
2022-09-11T05:48:43.273Z,75.19
2022-09-11T05:51:21.762Z,74.91
2022-09-11T05:53:58.787Z,75.00
2022-09-11T05:56:33.352Z,74.94
2022-09-11T05:59:19.653Z,74.90
2022-09-11T06:01:58.087Z,74.83
2022-09-11T06:04:43.971Z,74.96
2022-09-11T06:07:18.466Z,74.99
2022-09-11T06:10:02.310Z,74.84
2022-09-11T06:12:37.122Z,74.92
2022-09-11T06:15:30.118Z,74.87
2022-09-11T06:18:09.949Z,74.95
2022-09-11T06:20:44.605Z,74.89
2022-09-11T06:23:24.087Z,75.04
2022-09-11T06:26:05.134Z,75.17
2022-09-11T06:28:43.061Z,74.96
2022-09-11T06:31:20.166Z,75.06
2022-09-11T06:33:55.871Z,75.07
2022-09-11T06:36:31.743Z,74.97
2022-09-11T06:39:09.048Z,74.90
2022-09-11T06:41:43.261Z,74.79
2022-09-11T06:44:20.420Z,74.82
2022-09-11T06:46:54.097Z,74.77
2022-09-11T06:49:29.290Z,74.64
2022-09-11T06:52:35.927Z,74.66
2022-09-11T06:55:27.982Z,74.45
2022-09-11T06:58:10.165Z,74.64
2022-09-11T07:00:43.649Z,74.70
2022-09-11T07:03:19.779Z,74.46
2022-09-11T07:05:58.066Z,74.88
2022-09-11T07:08:31.658Z,74.61
2022-09-11T07:11:05.801Z,74.59
2022-09-11T07:13:42.076Z,74.63
2022-09-11T07:16:16.661Z,74.62
2022-09-11T07:18:56.058Z,74.63
2022-09-11T07:21:31.469Z,74.69
2022-09-11T07:24:10.610Z,74.74
2022-09-11T07:26:49.783Z,74.47
2022-09-11T07:29:29.622Z,74.40
2022-09-11T07:32:08.108Z,74.58
2022-09-11T07:34:41.887Z,74.41
2022-09-11T07:37:18.659Z,74.30
2022-09-11T07:39:53.744Z,74.26
2022-09-11T07:42:30.250Z,74.32
2022-09-11T07:45:04.528Z,74.33
2022-09-11T07:47:39.996Z,74.07
2022-09-11T07:50:14.625Z,74.14
2022-09-11T07:52:51.134Z,74.00
2022-09-11T07:55:26.628Z,73.93
2022-09-11T07:58:01.133Z,73.91
2022-09-11T08:00:37.292Z,73.81
2022-09-11T08:03:20.387Z,73.86
2022-09-11T08:05:59.281Z,73.63
2022-09-11T08:08:38.434Z,73.76
2022-09-11T08:11:14.053Z,73.76
2022-09-11T08:13:52.410Z,73.78
2022-09-11T08:16:30.157Z,73.69
2022-09-11T08:19:06.438Z,73.58
2022-09-11T08:21:40.964Z,73.67
2022-09-11T08:24:17.134Z,73.74
2022-09-11T08:26:52.042Z,73.76
2022-09-11T08:29:26.304Z,73.71
2022-09-11T08:32:03.223Z,73.82
2022-09-11T08:34:39.633Z,73.88
2022-09-11T08:37:13.234Z,73.99
2022-09-11T08:39:48.026Z,73.55
2022-09-11T08:42:22.780Z,73.79
2022-09-11T08:45:07.071Z,73.84
2022-09-11T08:47:50.357Z,73.92
2022-09-11T08:50:27.781Z,73.83
2022-09-11T08:53:04.020Z,73.91
2022-09-11T08:55:45.917Z,73.88
2022-09-11T08:58:30.404Z,73.75
2022-09-11T09:01:15.436Z,73.60
2022-09-11T09:04:13.650Z,73.61
2022-09-11T09:06:59.511Z,73.66
2022-09-11T09:09:43.072Z,73.60
2022-09-11T09:12:28.506Z,73.36
2022-09-11T09:15:24.271Z,73.41
2022-09-11T09:18:03.294Z,73.10
2022-09-11T09:20:42.085Z,73.03
2022-09-11T09:23:20.682Z,73.07
2022-09-11T09:25:57.351Z,72.71
2022-09-11T09:28:39.971Z,71.72
2022-09-11T09:31:16.918Z,70.48
2022-09-11T09:33:55.482Z,68.99
2022-09-11T09:36:34.008Z,67.90
2022-09-11T09:39:15.264Z,67.26
2022-09-11T09:42:11.238Z,66.78
2022-09-11T09:45:01.288Z,66.59
2022-09-11T09:47:34.945Z,66.79
2022-09-11T09:50:19.883Z,66.03
2022-09-11T09:52:57.294Z,65.48
2022-09-11T09:55:31.552Z,65.08
2022-09-11T09:58:05.184Z,64.65
2022-09-11T10:00:41.646Z,65.16
2022-09-11T10:03:20.939Z,65.24
2022-09-11T10:05:56.142Z,64.93
2022-09-11T10:08:35.747Z,64.85
2022-09-11T10:11:13.654Z,65.04
2022-09-11T10:13:55.768Z,65.37
2022-09-11T10:16:32.927Z,65.10
2022-09-11T10:19:09.277Z,65.42
2022-09-11T10:21:42.646Z,65.33
2022-09-11T10:24:24.243Z,65.67
2022-09-11T10:26:58.194Z,65.77
2022-09-11T10:29:32.302Z,65.55
2022-09-11T10:32:07.263Z,65.96
2022-09-11T10:34:42.189Z,65.79
2022-09-11T10:37:25.722Z,65.44
2022-09-11T10:40:07.359Z,64.88
2022-09-11T10:42:41.800Z,64.45
2022-09-11T10:45:18.018Z,64.00
2022-09-11T10:47:52.947Z,63.81
2022-09-11T10:50:28.889Z,63.82
2022-09-11T10:53:14.086Z,63.30
2022-09-11T10:55:58.178Z,63.08
2022-09-11T10:58:36.003Z,62.72
2022-09-11T11:01:12.989Z,62.66
2022-09-11T11:03:49.523Z,62.15
2022-09-11T11:06:42.524Z,62.00
2022-09-11T11:09:32.422Z,61.93
2022-09-11T11:12:21.838Z,61.77
2022-09-11T11:15:33.653Z,62.02
2022-09-11T11:18:31.492Z,62.04
2022-09-11T11:21:15.245Z,61.86
2022-09-11T11:24:04.346Z,61.42
2022-09-11T11:26:47.447Z,61.18
2022-09-11T11:29:45.786Z,61.47
2022-09-11T11:32:36.881Z,60.62
2022-09-11T11:35:26.633Z,60.54
2022-09-11T11:38:11.105Z,60.55
2022-09-11T11:40:49.775Z,60.10
2022-09-11T11:43:29.469Z,59.25
2022-09-11T11:46:10.865Z,57.24
2022-09-11T11:48:50.125Z,55.31
2022-09-11T11:51:28.575Z,54.12
2022-09-11T11:54:09.879Z,52.71
2022-09-11T11:56:48.399Z,50.92
2022-09-11T11:59:31.407Z,50.02
2022-09-11T12:02:13.471Z,49.64
2022-09-11T12:04:51.868Z,49.26
2022-09-11T12:07:28.047Z,48.30
2022-09-11T12:10:04.334Z,48.70
2022-09-11T12:12:47.897Z,48.58
2022-09-11T12:15:23.499Z,48.66
2022-09-11T12:18:05.875Z,48.91
2022-09-11T12:20:41.798Z,49.01
2022-09-11T12:23:44.487Z,49.88
2022-09-11T12:26:22.354Z,49.80
2022-09-11T12:29:29.077Z,49.88
2022-09-11T12:32:41.003Z,49.91
2022-09-11T12:35:26.213Z,50.13
2022-09-11T12:38:04.662Z,49.49
2022-09-11T12:40:53.567Z,48.55
2022-09-11T12:43:49.349Z,48.16
2022-09-11T12:47:19.190Z,47.26
2022-09-11T12:50:07.143Z,47.30
2022-09-11T12:52:51.046Z,46.69
2022-09-11T12:55:33.431Z,46.97
2022-09-11T12:58:25.303Z,46.91
2022-09-11T13:01:16.081Z,46.63
2022-09-11T13:03:58.036Z,46.64
2022-09-11T13:06:43.809Z,46.76
2022-09-11T13:09:20.740Z,47.68
2022-09-11T13:11:56.296Z,47.13
2022-09-11T13:14:49.494Z,47.07
2022-09-11T13:17:32.371Z,46.54
2022-09-11T13:20:27.445Z,46.52
2022-09-11T13:23:18.544Z,46.75
2022-09-11T13:25:55.799Z,46.17
2022-09-11T13:28:31.881Z,46.15
2022-09-11T13:31:08.196Z,46.62
2022-09-11T13:33:44.512Z,47.01
2022-09-11T13:36:21.953Z,47.00
2022-09-11T13:39:00.373Z,46.91
2022-09-11T13:41:37.799Z,46.86
2022-09-11T13:44:15.450Z,47.60
2022-09-11T13:46:53.498Z,47.53
2022-09-11T13:49:37.755Z,47.71
2022-09-11T13:52:16.020Z,47.90
2022-09-11T13:54:52.088Z,48.02
2022-09-11T13:57:28.286Z,47.96
2022-09-11T14:00:02.239Z,48.87
2022-09-11T14:02:50.810Z,49.16
2022-09-11T14:05:28.564Z,49.29
2022-09-11T14:08:04.843Z,49.91
2022-09-11T14:10:47.334Z,50.28
2022-09-11T14:13:25.474Z,50.52
2022-09-11T14:16:02.952Z,51.16
2022-09-11T14:18:42.484Z,51.40
2022-09-11T14:21:20.793Z,51.01
2022-09-11T14:23:56.400Z,50.80
2022-09-11T14:26:42.835Z,51.01
2022-09-11T14:29:25.358Z,51.13
2022-09-11T14:32:28.043Z,50.81
2022-09-11T14:35:02.408Z,50.66
2022-09-11T14:37:45.920Z,50.82
2022-09-11T14:40:20.600Z,50.98
2022-09-11T14:42:54.448Z,50.48
2022-09-11T14:45:27.870Z,50.41
2022-09-11T14:48:01.365Z,50.93
2022-09-11T14:50:35.069Z,50.93
2022-09-11T14:53:12.696Z,51.01
2022-09-11T14:55:51.518Z,50.95
2022-09-11T14:58:28.999Z,51.53
2022-09-11T15:01:02.525Z,51.75
2022-09-11T15:03:35.845Z,51.53
2022-09-11T15:06:15.708Z,50.83
2022-09-11T15:08:50.699Z,50.48
2022-09-11T15:11:25.113Z,50.10
2022-09-11T15:14:16.081Z,50.13
2022-09-11T15:16:52.103Z,50.58
2022-09-11T15:19:25.342Z,50.64
2022-09-11T15:21:59.528Z,50.12
2022-09-11T15:24:35.206Z,50.03
2022-09-11T15:27:10.565Z,50.32
2022-09-11T15:29:44.186Z,50.54
2022-09-11T15:32:17.866Z,50.72
2022-09-11T15:34:51.861Z,51.06
2022-09-11T15:37:27.230Z,51.22
2022-09-11T15:40:02.346Z,51.09
2022-09-11T15:42:39.683Z,51.23
2022-09-11T15:45:14.121Z,51.28
2022-09-11T15:47:47.806Z,51.44
2022-09-11T15:50:24.792Z,51.33
2022-09-11T15:52:58.831Z,51.60
2022-09-11T15:55:37.091Z,51.81
2022-09-11T15:58:10.618Z,51.61
2022-09-11T16:00:44.013Z,51.54
2022-09-11T16:03:17.960Z,51.25
2022-09-11T16:05:51.455Z,50.89
2022-09-11T16:08:28.040Z,50.87
2022-09-11T16:11:12.095Z,50.70
2022-09-11T16:13:49.422Z,50.38
2022-09-11T16:16:29.362Z,50.45
2022-09-11T16:19:02.802Z,50.29
2022-09-11T16:21:37.076Z,50.11
2022-09-11T16:24:11.146Z,50.39
2022-09-11T16:26:46.548Z,50.63
2022-09-11T16:29:20.680Z,50.81
2022-09-11T16:31:55.611Z,51.02
2022-09-11T16:34:29.959Z,51.09
2022-09-11T16:37:03.587Z,51.46
2022-09-11T16:39:36.699Z,51.23
2022-09-11T16:42:12.913Z,52.00
2022-09-11T16:44:46.468Z,52.14
2022-09-11T16:47:20.471Z,52.21
2022-09-11T16:50:09.492Z,52.46
2022-09-11T16:52:43.010Z,52.98
2022-09-11T16:55:16.637Z,53.16
2022-09-11T16:57:52.207Z,53.47
2022-09-11T17:00:25.828Z,53.75
2022-09-11T17:02:59.014Z,53.23
2022-09-11T17:05:32.624Z,53.68
2022-09-11T17:08:06.160Z,53.44
2022-09-11T17:10:43.984Z,54.37
2022-09-11T17:13:19.326Z,54.30
2022-09-11T17:15:52.881Z,53.94
2022-09-11T17:18:26.186Z,53.83
2022-09-11T17:21:00.901Z,54.19
2022-09-11T17:23:35.165Z,54.08
2022-09-11T17:26:09.597Z,54.58
2022-09-11T17:28:45.990Z,54.36
2022-09-11T17:31:20.840Z,54.23
2022-09-11T17:33:54.407Z,54.51
2022-09-11T17:36:28.140Z,54.71
2022-09-11T17:39:01.556Z,54.86
2022-09-11T17:41:35.117Z,54.80
2022-09-11T17:44:10.183Z,55.01
2022-09-11T17:46:43.792Z,55.02
2022-09-11T17:49:18.008Z,55.17
2022-09-11T17:51:51.479Z,55.41
2022-09-11T17:54:25.063Z,55.42
2022-09-11T17:56:58.752Z,55.28
2022-09-11T17:59:34.082Z,55.43
2022-09-11T18:02:08.194Z,55.64
2022-09-11T18:04:41.810Z,55.91
2022-09-11T18:07:15.665Z,55.97
2022-09-11T18:09:51.858Z,55.69
2022-09-11T18:12:29.119Z,56.02
2022-09-11T18:15:04.356Z,56.34
2022-09-11T18:17:38.481Z,56.68
2022-09-11T18:20:12.260Z,56.70
2022-09-11T18:22:45.490Z,56.35
2022-09-11T18:25:23.412Z,56.64
2022-09-11T18:27:57.210Z,56.77
2022-09-11T18:30:32.992Z,56.85
2022-09-11T18:33:10.610Z,56.86
2022-09-11T18:35:46.002Z,56.99
2022-09-11T18:38:20.342Z,57.13
2022-09-11T18:41:00.191Z,57.20
2022-09-11T18:43:33.835Z,57.36
2022-09-11T18:46:08.849Z,57.50
2022-09-11T18:48:44.561Z,57.78
2022-09-11T18:51:19.797Z,57.76
2022-09-11T18:53:54.162Z,58.15
2022-09-11T18:56:33.283Z,58.36
2022-09-11T18:59:06.834Z,58.46
2022-09-11T19:01:42.115Z,58.59
2022-09-11T19:04:16.502Z,58.65
2022-09-11T19:06:50.091Z,58.91
2022-09-11T19:09:23.367Z,58.41
2022-09-11T19:11:56.906Z,58.87
2022-09-11T19:14:30.718Z,58.94
2022-09-11T19:17:05.627Z,58.55
2022-09-11T19:19:39.254Z,59.10
2022-09-11T19:22:12.826Z,59.32
2022-09-11T19:24:46.464Z,59.45
2022-09-11T19:27:20.171Z,59.50
2022-09-11T19:29:53.470Z,59.18
2022-09-11T19:32:28.714Z,59.44
2022-09-11T19:35:02.451Z,59.67
2022-09-11T19:37:36.777Z,59.79
2022-09-11T19:40:11.082Z,60.05
2022-09-11T19:42:44.756Z,60.34
2022-09-11T19:45:18.342Z,60.31
2022-09-11T19:47:53.791Z,60.52
2022-09-11T19:50:34.043Z,60.86
2022-09-11T19:53:07.515Z,60.91
2022-09-11T19:55:40.989Z,61.14
2022-09-11T19:58:14.460Z,61.40
2022-09-11T20:00:50.124Z,61.64
2022-09-11T20:03:25.608Z,61.75
2022-09-11T20:06:01.322Z,61.96
2022-09-11T20:08:37.908Z,62.30
2022-09-11T20:11:14.288Z,62.64
2022-09-11T20:13:47.969Z,62.61
2022-09-11T20:16:23.160Z,61.98
2022-09-11T20:19:00.505Z,62.35
2022-09-11T20:21:36.205Z,62.51
2022-09-11T20:24:09.725Z,62.63
2022-09-11T20:26:43.408Z,62.70
2022-09-11T20:29:16.877Z,62.05
2022-09-11T20:34:38.951Z,62.60
2022-09-11T20:37:12.795Z,62.64
2022-09-11T20:39:46.262Z,62.55
2022-09-11T20:42:19.732Z,62.40
2022-09-11T20:44:53.206Z,62.45
2022-09-11T20:47:26.824Z,62.45
2022-09-11T20:50:01.646Z,62.33
2022-09-11T20:52:39.319Z,62.22
2022-09-11T20:55:13.047Z,62.36
2022-09-11T20:57:46.496Z,62.27
2022-09-11T21:00:20.537Z,62.52
2022-09-11T21:02:54.236Z,62.84
2022-09-11T21:05:28.795Z,62.14
2022-09-11T21:08:02.269Z,62.56
2022-09-11T21:10:37.272Z,62.81
2022-09-11T21:13:11.884Z,63.00
2022-09-11T21:15:46.396Z,63.15
2022-09-11T21:18:19.867Z,63.31
2022-09-11T21:20:58.036Z,63.59
2022-09-11T21:23:31.930Z,63.66
2022-09-11T21:26:07.881Z,63.05
2022-09-11T21:28:41.372Z,63.69
2022-09-11T21:34:13.080Z,63.96
2022-09-11T21:36:47.960Z,64.38
2022-09-11T21:39:23.688Z,64.66
2022-09-11T21:42:11.846Z,64.71
2022-09-11T21:44:46.965Z,65.07
2022-09-11T21:47:23.771Z,65.02
2022-09-11T21:49:57.356Z,65.07
2022-09-11T21:52:32.391Z,65.16
2022-09-11T21:55:06.806Z,65.39
2022-09-11T21:57:42.968Z,65.51
2022-09-11T22:00:17.153Z,65.71
2022-09-11T22:02:50.940Z,65.75
2022-09-11T22:05:24.519Z,66.02
2022-09-11T22:07:59.832Z,66.10
2022-09-11T22:10:33.373Z,65.91
2022-09-11T22:13:06.974Z,66.38
2022-09-11T22:15:41.963Z,66.55
2022-09-11T22:18:16.328Z,66.66
2022-09-11T22:20:52.075Z,66.69
2022-09-11T22:23:27.628Z,66.98
2022-09-11T22:26:02.664Z,66.96
2022-09-11T22:28:36.815Z,67.06
2022-09-11T22:31:10.800Z,67.16
2022-09-11T22:33:44.466Z,67.25
2022-09-11T22:36:19.368Z,66.47
2022-09-11T22:38:54.703Z,67.07
2022-09-11T22:41:28.792Z,67.42
2022-09-11T22:44:02.350Z,67.74
2022-09-11T22:46:35.957Z,67.70
2022-09-11T22:49:10.049Z,67.96
2022-09-11T22:51:43.457Z,68.13
2022-09-11T22:54:18.641Z,68.18
2022-09-11T22:56:52.223Z,68.34
2022-09-11T22:59:25.651Z,68.29
2022-09-11T23:01:59.873Z,68.37
2022-09-11T23:04:33.487Z,68.50
2022-09-11T23:07:18.541Z,68.57
2022-09-11T23:09:53.475Z,68.82
2022-09-11T23:12:28.887Z,68.83
2022-09-11T23:15:03.266Z,68.95
2022-09-11T23:17:36.970Z,69.05
2022-09-11T23:20:11.393Z,69.22
2022-09-11T23:22:46.280Z,69.21
2022-09-11T23:25:21.663Z,69.38
2022-09-11T23:27:55.188Z,69.46
2022-09-11T23:30:28.923Z,69.57
2022-09-11T23:33:02.086Z,68.68
2022-09-11T23:35:38.202Z,69.25
2022-09-11T23:38:11.930Z,69.61
2022-09-11T23:40:46.915Z,69.69
2022-09-11T23:43:20.432Z,69.73
2022-09-11T23:45:53.944Z,69.73
2022-09-11T23:48:27.409Z,69.83
2022-09-11T23:51:01.239Z,69.90
2022-09-11T23:53:34.352Z,69.28
2022-09-11T23:56:10.634Z,69.84
2022-09-11T23:58:45.405Z,69.93
